createdAt,value
2018-12-26T00:00:07.287Z,11.78
2018-12-26T00:02:09.173Z,9.23
2018-12-26T00:04:11.047Z,10.08
2018-12-26T00:06:12.898Z,9.25
2018-12-26T00:08:14.797Z,11.03
2018-12-26T00:10:16.952Z,10.13
2018-12-26T00:12:20.148Z,10.45
2018-12-26T00:14:22.044Z,9.08
2018-12-26T00:16:29.465Z,9.63
2018-12-26T00:18:32.282Z,11.97
2018-12-26T00:20:34.200Z,9.90
2018-12-26T00:22:36.036Z,10.43
2018-12-26T00:24:37.895Z,11.40
2018-12-26T00:26:40.097Z,10.45
2018-12-26T00:28:41.937Z,11.97
2018-12-26T00:30:43.805Z,9.58
2018-12-26T00:33:05.322Z,11.88
2018-12-26T00:35:07.164Z,10.50
2018-12-26T00:37:09.006Z,10.58
2018-12-26T00:39:10.899Z,13.32
2018-12-26T00:41:12.757Z,11.50
2018-12-26T00:43:14.704Z,11.43
2018-12-26T00:45:16.563Z,11.65
2018-12-26T00:47:18.413Z,11.30
2018-12-26T00:49:20.257Z,12.05
2018-12-26T00:51:22.145Z,12.53
2018-12-26T00:53:24.006Z,11.75
2018-12-26T00:55:25.853Z,10.08
2018-12-26T00:57:27.791Z,12.40
2018-12-26T00:59:29.640Z,13.20
2018-12-26T01:01:31.483Z,12.37
2018-12-26T01:03:33.345Z,11.12
2018-12-26T01:05:35.259Z,12.37
2018-12-26T01:07:37.182Z,11.70
2018-12-26T01:09:39.042Z,14.80
2018-12-26T01:11:41.484Z,23.73
2018-12-26T01:13:43.338Z,16.52
2018-12-26T01:15:45.205Z,13.48
2018-12-26T01:17:47.046Z,13.85
2018-12-26T01:19:48.896Z,15.40
2018-12-26T01:21:51.197Z,14.83
2018-12-26T01:23:53.055Z,15.40
2018-12-26T01:25:54.890Z,15.35
2018-12-26T01:27:56.746Z,13.90
2018-12-26T01:29:58.699Z,16.67
2018-12-26T01:32:00.545Z,15.98
2018-12-26T01:34:02.946Z,15.28
2018-12-26T01:36:04.793Z,14.15
2018-12-26T01:38:06.643Z,13.30
2018-12-26T01:40:08.909Z,16.42
2018-12-26T01:42:10.756Z,16.27
2018-12-26T01:44:12.598Z,16.62
2018-12-26T01:46:14.698Z,16.45
2018-12-26T01:48:16.545Z,18.70
2018-12-26T01:50:18.392Z,17.85
2018-12-26T01:52:20.491Z,18.25
2018-12-26T01:54:22.330Z,18.25
2018-12-26T01:56:27.995Z,17.30
2018-12-26T01:58:28.020Z,18.62
2018-12-26T02:00:29.950Z,16.42
2018-12-26T02:02:31.798Z,17.70
2018-12-26T02:04:33.649Z,18.25
2018-12-26T02:06:35.490Z,18.70
2018-12-26T02:08:37.329Z,18.67
2018-12-26T02:10:39.196Z,19.75
2018-12-26T02:12:41.029Z,15.58
2018-12-26T02:14:42.873Z,15.75
2018-12-26T02:16:44.748Z,18.90
2018-12-26T02:18:46.591Z,19.15
2018-12-26T02:20:48.631Z,18.70
2018-12-26T02:22:50.558Z,19.90
2018-12-26T02:24:52.401Z,17.48
2018-12-26T02:26:54.269Z,20.27
2018-12-26T02:28:56.185Z,19.77
2018-12-26T02:30:58.024Z,20.57
2018-12-26T02:32:59.895Z,19.35
2018-12-26T02:35:01.805Z,18.92
2018-12-26T02:37:03.656Z,19.20
2018-12-26T02:39:06.077Z,20.35
2018-12-26T02:41:07.910Z,20.65
2018-12-26T02:43:09.858Z,20.55
2018-12-26T02:45:12.032Z,22.27
2018-12-26T02:47:13.878Z,17.12
2018-12-26T02:49:15.733Z,20.00
2018-12-26T02:51:17.597Z,20.97
2018-12-26T02:53:19.438Z,20.65
2018-12-26T02:55:21.283Z,18.30
2018-12-26T02:57:23.176Z,21.57
2018-12-26T02:59:25.014Z,18.52
2018-12-26T03:01:26.863Z,20.35
2018-12-26T03:03:29.049Z,21.68
2018-12-26T03:05:31.225Z,21.42
2018-12-26T03:07:33.077Z,19.82
2018-12-26T03:09:35.014Z,18.65
2018-12-26T03:11:36.880Z,20.55
2018-12-26T03:13:38.726Z,19.50
2018-12-26T03:15:40.589Z,21.52
2018-12-26T03:17:42.534Z,20.88
2018-12-26T03:19:44.381Z,20.27
2018-12-26T03:21:46.226Z,20.50
2018-12-26T03:23:48.088Z,18.05
2018-12-26T03:25:49.941Z,18.37
2018-12-26T03:27:51.816Z,16.77
2018-12-26T03:29:53.687Z,17.85
2018-12-26T03:31:55.543Z,19.65
2018-12-26T03:33:57.383Z,20.75
2018-12-26T03:35:59.251Z,19.92
2018-12-26T03:38:01.090Z,19.85
2018-12-26T03:40:03.373Z,18.65
2018-12-26T03:42:05.670Z,19.75
2018-12-26T03:44:07.513Z,20.85
2018-12-26T03:46:09.349Z,19.00
2018-12-26T03:48:11.597Z,15.53
2018-12-26T03:50:13.558Z,19.98
2018-12-26T03:54:46.446Z,15.90
2018-12-26T03:56:48.280Z,18.70
2018-12-26T03:58:50.224Z,18.20
2018-12-26T04:00:52.106Z,20.17
2018-12-26T04:02:53.951Z,19.62
2018-12-26T04:04:55.893Z,20.70
2018-12-26T04:06:57.742Z,21.93
2018-12-26T04:08:59.590Z,17.85
2018-12-26T04:11:01.418Z,20.32
2018-12-26T04:13:03.378Z,20.30
2018-12-26T04:15:05.325Z,21.10
2018-12-26T04:17:07.185Z,19.25
2018-12-26T04:19:09.045Z,20.27
2018-12-26T04:21:10.994Z,19.50
2018-12-26T04:23:12.850Z,18.35
2018-12-26T04:25:14.814Z,18.98
2018-12-26T04:27:16.680Z,15.80
2018-12-26T04:29:18.522Z,16.93
2018-12-26T04:31:20.491Z,17.73
2018-12-26T04:33:22.339Z,18.62
2018-12-26T04:35:24.181Z,20.65
2018-12-26T04:37:26.407Z,16.60
2018-12-26T04:39:28.252Z,18.75
2018-12-26T04:41:30.110Z,19.25
2018-12-26T04:43:32.140Z,19.23
2018-12-26T04:45:33.980Z,19.85
2018-12-26T04:47:35.826Z,20.52
2018-12-26T04:49:37.694Z,18.32
2018-12-26T04:51:39.625Z,18.37
2018-12-26T04:53:41.500Z,18.40
2018-12-26T04:55:43.390Z,17.75
2018-12-26T04:57:45.222Z,20.23
2018-12-26T04:59:47.062Z,20.17
2018-12-26T05:01:49.030Z,19.07
2018-12-26T05:03:50.869Z,19.25
2018-12-26T05:05:52.810Z,18.45
2018-12-26T05:07:54.686Z,18.70
2018-12-26T05:09:56.522Z,18.85
2018-12-26T05:11:58.457Z,21.02
2018-12-26T05:14:00.327Z,19.35
2018-12-26T05:16:02.166Z,21.45
2018-12-26T05:18:04.005Z,18.85
2018-12-26T05:20:05.878Z,18.70
2018-12-26T05:22:07.828Z,19.75
2018-12-26T05:24:09.680Z,20.12
2018-12-26T05:26:11.541Z,18.98
2018-12-26T05:28:13.380Z,18.50
2018-12-26T05:30:15.221Z,18.92
2018-12-26T05:32:17.181Z,20.95
2018-12-26T05:34:19.014Z,20.35
2018-12-26T05:36:20.854Z,21.17
2018-12-26T05:38:22.739Z,22.80
2018-12-26T05:40:24.579Z,21.40
2018-12-26T05:42:26.413Z,20.90
2018-12-26T05:44:28.296Z,20.23
2018-12-26T05:46:30.134Z,21.33
2018-12-26T05:48:31.980Z,22.85
2018-12-26T05:50:33.957Z,23.75
2018-12-26T05:52:35.907Z,23.40
2018-12-26T05:54:37.748Z,23.42
2018-12-26T05:56:39.611Z,20.85
2018-12-26T05:58:41.553Z,24.18
2018-12-26T06:00:43.384Z,25.30
2018-12-26T06:02:45.425Z,23.15
2018-12-26T06:04:47.368Z,23.87
2018-12-26T06:06:49.209Z,26.02
2018-12-26T06:08:51.083Z,25.60
2018-12-26T06:10:52.918Z,26.48
2018-12-26T06:12:54.755Z,25.75
2018-12-26T06:14:56.615Z,23.83
2018-12-26T06:16:58.457Z,25.40
2018-12-26T06:19:00.304Z,26.73
2018-12-26T06:21:02.172Z,26.75
2018-12-26T06:23:04.001Z,20.60
2018-12-26T06:25:05.835Z,27.40
2018-12-26T06:27:07.707Z,25.68
2018-12-26T06:29:09.540Z,25.80
2018-12-26T06:31:11.378Z,26.55
2018-12-26T06:33:13.259Z,25.75
2018-12-26T06:35:15.098Z,28.00
2018-12-26T06:37:16.941Z,27.55
2018-12-26T06:39:18.790Z,22.15
2018-12-26T06:41:20.637Z,30.75
2018-12-26T06:43:22.761Z,30.12
2018-12-26T06:45:24.992Z,23.77
2018-12-26T06:47:26.868Z,25.75
2018-12-26T06:49:28.701Z,26.33
2018-12-26T06:51:30.644Z,27.50
2018-12-26T06:53:32.497Z,25.80
2018-12-26T06:55:34.352Z,32.33
2018-12-26T06:57:36.236Z,29.75
2018-12-26T06:59:38.078Z,30.12
2018-12-26T07:01:39.913Z,30.40
2018-12-26T07:03:41.796Z,26.80
2018-12-26T07:05:43.642Z,23.40
2018-12-26T07:07:45.485Z,25.50
2018-12-26T07:09:47.353Z,24.77
2018-12-26T07:11:49.193Z,28.50
2018-12-26T07:13:51.049Z,27.02
2018-12-26T07:15:52.909Z,25.72
2018-12-26T07:17:54.754Z,28.20
2018-12-26T07:19:56.619Z,22.48
2018-12-26T07:21:58.480Z,26.02
2018-12-26T07:24:00.341Z,24.92
2018-12-26T07:26:02.186Z,26.50
2018-12-26T07:28:08.971Z,28.12
2018-12-26T07:30:08.072Z,23.98
2018-12-26T07:32:09.925Z,26.65
2018-12-26T07:34:11.783Z,27.32
2018-12-26T07:36:13.627Z,23.00
2018-12-26T07:38:15.491Z,25.60
2018-12-26T07:40:17.341Z,25.62
2018-12-26T07:42:19.178Z,24.47
2018-12-26T07:44:21.069Z,26.52
2018-12-26T07:46:22.926Z,26.20
2018-12-26T07:48:24.764Z,21.65
2018-12-26T07:50:26.806Z,27.17
2018-12-26T07:52:28.645Z,25.72
2018-12-26T07:54:30.485Z,23.25
2018-12-26T07:56:32.342Z,25.90
2018-12-26T07:58:34.200Z,26.05
2018-12-26T08:00:36.462Z,25.72
2018-12-26T08:02:38.325Z,23.75
2018-12-26T08:04:40.169Z,21.25
2018-12-26T08:06:42.034Z,19.65
2018-12-26T08:08:43.905Z,25.05
2018-12-26T08:10:45.761Z,23.10
2018-12-26T08:12:47.643Z,26.37
2018-12-26T08:14:49.489Z,23.38
2018-12-26T08:16:53.291Z,25.00
2018-12-26T08:18:55.133Z,24.67
2018-12-26T08:20:56.972Z,25.23
2018-12-26T08:22:58.833Z,24.67
2018-12-26T08:25:00.696Z,25.05
2018-12-26T08:27:02.646Z,24.32
2018-12-26T08:29:04.501Z,24.52
2018-12-26T08:31:06.373Z,27.22
2018-12-26T08:33:08.216Z,24.18
2018-12-26T08:35:10.068Z,21.57
2018-12-26T08:37:12.129Z,23.42
2018-12-26T08:39:14.074Z,24.30
2018-12-26T08:41:15.917Z,25.10
2018-12-26T08:43:18.081Z,23.52
2018-12-26T08:45:19.941Z,24.37
2018-12-26T08:47:21.793Z,24.82
2018-12-26T08:49:23.905Z,20.90
2018-12-26T08:51:25.772Z,23.95
2018-12-26T08:53:27.618Z,21.05
2018-12-26T08:55:29.605Z,21.80
2018-12-26T08:57:31.457Z,20.17
2018-12-26T08:59:33.305Z,21.77
2018-12-26T09:01:35.196Z,21.65
2018-12-26T09:03:37.058Z,24.20
2018-12-26T09:05:38.925Z,24.57
2018-12-26T09:07:40.781Z,24.25
2018-12-26T09:09:42.637Z,23.00
2018-12-26T09:11:44.505Z,24.43
2018-12-26T09:13:46.378Z,22.35
2018-12-26T09:15:48.232Z,23.07
2018-12-26T09:17:50.085Z,21.65
2018-12-26T09:19:52.041Z,20.30
2018-12-26T09:21:54.011Z,20.80
2018-12-26T09:23:55.876Z,22.13
2018-12-26T09:25:59.497Z,21.97
2018-12-26T09:28:01.343Z,21.75
2018-12-26T09:30:03.457Z,19.73
2018-12-26T09:32:05.317Z,22.25
2018-12-26T09:34:07.191Z,19.48
2018-12-26T09:36:09.071Z,19.73
2018-12-26T09:38:10.953Z,20.88
2018-12-26T09:40:12.820Z,22.90
2018-12-26T09:42:14.674Z,20.82
2018-12-26T09:44:16.931Z,20.00
2018-12-26T09:46:18.809Z,23.10
2018-12-26T09:48:20.797Z,22.25
2018-12-26T09:50:22.771Z,22.10
2018-12-26T09:52:24.625Z,30.30
2018-12-26T09:54:26.473Z,23.22
2018-12-26T09:56:28.357Z,21.70
2018-12-26T09:58:52.293Z,24.30
2018-12-26T10:00:59.241Z,29.92
2018-12-26T10:03:13.007Z,24.60
2018-12-26T10:05:20.880Z,23.55
2018-12-26T10:07:29.521Z,36.55
2018-12-26T10:09:31.398Z,21.55
2018-12-26T10:11:33.780Z,20.68
2018-12-26T10:13:35.633Z,37.93
2018-12-26T10:15:37.516Z,29.07
2018-12-26T10:17:39.376Z,27.35
2018-12-26T10:19:41.230Z,22.17
2018-12-26T10:21:43.267Z,19.10
2018-12-26T10:23:45.123Z,17.77
2018-12-26T10:25:46.975Z,20.30
2018-12-26T10:27:48.837Z,19.60
2018-12-26T10:29:50.692Z,16.87
2018-12-26T10:31:52.569Z,17.17
2018-12-26T10:33:54.433Z,18.07
2018-12-26T10:35:56.291Z,14.87
2018-12-26T10:37:58.137Z,14.93
2018-12-26T10:40:00.242Z,12.20
2018-12-26T10:42:02.095Z,11.45
2018-12-26T10:44:03.949Z,14.55
2018-12-26T10:46:05.905Z,13.38
2018-12-26T10:48:07.769Z,13.95
2018-12-26T10:50:09.685Z,13.53
2018-12-26T10:52:17.845Z,13.93
2018-12-26T10:54:19.720Z,15.70
2018-12-26T10:56:21.585Z,12.50
2018-12-26T10:58:23.497Z,15.53
2018-12-26T11:00:25.346Z,14.35
2018-12-26T11:02:27.074Z,14.13
2018-12-26T11:04:29.025Z,17.70
2018-12-26T11:06:30.926Z,12.70
2018-12-26T11:08:32.981Z,13.43
2018-12-26T11:10:34.846Z,12.97
2018-12-26T11:12:36.666Z,13.65
2018-12-26T11:14:38.389Z,13.85
2018-12-26T11:16:47.336Z,12.33
2018-12-26T11:18:49.361Z,12.30
2018-12-26T11:20:51.304Z,11.50
2018-12-26T11:22:53.147Z,12.87
2018-12-26T11:24:54.957Z,14.00
2018-12-26T11:26:56.877Z,14.17
2018-12-26T11:28:58.620Z,13.87
2018-12-26T11:31:00.341Z,13.13
2018-12-26T11:33:02.095Z,11.70
2018-12-26T11:35:04.075Z,13.20
2018-12-26T11:37:06.258Z,13.90
2018-12-26T11:39:08.057Z,13.20
2018-12-26T11:41:10.153Z,13.77
2018-12-26T11:43:12.009Z,12.50
2018-12-26T11:45:14.877Z,13.53
2018-12-26T11:47:16.886Z,23.00
2018-12-26T11:49:18.820Z,48.65
2018-12-26T11:51:23.818Z,16.50
2018-12-26T11:53:27.280Z,13.03
2018-12-26T11:55:29.065Z,14.03
2018-12-26T11:57:31.181Z,12.07
2018-12-26T11:59:32.949Z,13.07
2018-12-26T12:01:34.910Z,13.07
2018-12-26T12:03:36.642Z,12.87
2018-12-26T12:05:38.597Z,11.70
2018-12-26T12:07:40.663Z,13.27
2018-12-26T12:09:42.501Z,12.30
2018-12-26T12:11:44.661Z,12.93
2018-12-26T12:13:46.581Z,13.00
2018-12-26T12:15:48.486Z,13.10
2018-12-26T12:17:50.643Z,13.60
2018-12-26T12:19:52.452Z,18.70
2018-12-26T12:21:54.177Z,12.70
2018-12-26T12:23:56.147Z,13.50
2018-12-26T12:26:00.202Z,12.83
2018-12-26T12:28:03.324Z,15.23
2018-12-26T12:30:05.665Z,12.40
2018-12-26T12:32:07.392Z,13.87
2018-12-26T12:34:09.205Z,13.47
2018-12-26T12:36:13.029Z,14.37
2018-12-26T12:38:14.781Z,13.73
2018-12-26T12:40:16.521Z,16.30
2018-12-26T12:42:20.734Z,16.40
2018-12-26T12:44:22.924Z,13.83
2018-12-26T12:46:24.978Z,14.40
2018-12-26T12:48:27.262Z,15.93
2018-12-26T12:50:29.134Z,14.20
2018-12-26T12:52:30.970Z,15.27
2018-12-26T12:54:32.846Z,15.90
2018-12-26T12:56:34.653Z,14.55
2018-12-26T12:58:36.578Z,15.03
2018-12-26T13:00:38.513Z,15.53
2018-12-26T13:02:40.359Z,16.17
2018-12-26T13:04:42.175Z,14.93
2018-12-26T13:06:43.901Z,15.23
2018-12-26T13:08:45.598Z,16.00
2018-12-26T13:10:47.398Z,16.27
2018-12-26T13:12:49.546Z,17.47
2018-12-26T13:14:51.493Z,16.00
2018-12-26T13:16:53.206Z,16.53
2018-12-26T13:18:55.207Z,13.60
2018-12-26T13:20:56.907Z,26.67
2018-12-26T13:22:58.617Z,19.53
2018-12-26T13:25:00.713Z,16.20
2018-12-26T13:27:02.580Z,15.03
2018-12-26T13:29:04.301Z,15.33
2018-12-26T13:31:06.518Z,15.27
2018-12-26T13:33:08.402Z,15.10
2018-12-26T13:35:10.177Z,15.73
2018-12-26T13:37:12.133Z,16.00
2018-12-26T13:39:13.936Z,17.27
2018-12-26T13:41:15.726Z,18.90
2018-12-26T13:43:17.801Z,17.37
2018-12-26T13:45:19.857Z,20.73
2018-12-26T13:47:21.662Z,21.87
2018-12-26T13:49:23.553Z,20.20
2018-12-26T13:51:27.797Z,18.10
2018-12-26T13:53:29.653Z,18.43
2018-12-26T13:56:38.398Z,20.40
2018-12-26T13:58:40.183Z,20.00
2018-12-26T14:00:41.926Z,28.70
2018-12-26T14:02:43.736Z,21.57
2018-12-26T14:04:45.489Z,22.07
2018-12-26T14:06:47.345Z,22.63
2018-12-26T14:08:49.359Z,21.57
2018-12-26T14:10:51.137Z,24.00
2018-12-26T14:12:53.190Z,22.20
2018-12-26T14:14:54.958Z,25.63
2018-12-26T14:16:57.021Z,24.37
2018-12-26T14:18:59.002Z,23.37
2018-12-26T14:21:01.017Z,24.37
2018-12-26T14:23:03.020Z,26.60
2018-12-26T14:25:05.962Z,27.00
2018-12-26T14:27:08.003Z,29.57
2018-12-26T14:29:10.230Z,28.20
2018-12-26T14:31:12.076Z,28.73
2018-12-26T14:33:13.842Z,30.80
2018-12-26T14:35:15.641Z,30.00
2018-12-26T14:37:17.361Z,31.27
2018-12-26T14:46:07.801Z,30.27
2018-12-26T14:54:24.506Z,29.80
2018-12-26T14:56:26.330Z,31.67
2018-12-26T14:58:28.223Z,27.93
2018-12-26T15:00:53.891Z,25.30
2018-12-26T15:02:56.343Z,30.20
2018-12-26T15:04:58.610Z,30.13
2018-12-26T15:07:00.379Z,25.60
2018-12-26T15:09:04.127Z,30.57
2018-12-26T15:11:05.839Z,30.37
2018-12-26T15:13:07.557Z,31.47
2018-12-26T15:15:09.856Z,28.80
2018-12-26T15:17:11.610Z,27.17
2018-12-26T15:19:15.518Z,27.03
2018-12-26T15:21:17.285Z,28.00
2018-12-26T15:23:19.036Z,26.70
2018-12-26T15:25:38.121Z,28.07
2018-12-26T15:27:39.837Z,27.57
2018-12-26T15:29:41.552Z,27.47
2018-12-26T15:31:43.249Z,26.63
2018-12-26T15:33:45.033Z,28.30
2018-12-26T15:35:46.742Z,29.80
2018-12-26T15:37:48.447Z,29.57
2018-12-26T15:39:50.496Z,27.80
2018-12-26T15:41:52.212Z,27.43
2018-12-26T15:43:54.084Z,27.83
2018-12-26T15:45:55.878Z,28.60
2018-12-26T15:47:57.687Z,28.83
2018-12-26T15:49:59.389Z,27.90
2018-12-26T15:52:01.133Z,28.67
2018-12-26T15:54:03.049Z,27.70
2018-12-26T15:56:04.858Z,26.03
2018-12-26T15:58:06.879Z,29.03
2018-12-26T16:00:08.838Z,28.87
2018-12-26T16:02:10.650Z,33.20
2018-12-26T16:04:12.465Z,30.30
2018-12-26T16:06:14.218Z,30.30
2018-12-26T16:08:15.924Z,30.77
2018-12-26T16:10:17.649Z,29.43
2018-12-26T16:12:19.421Z,26.80
2018-12-26T16:14:21.225Z,29.80
2018-12-26T16:16:23.509Z,29.80
2018-12-26T16:18:25.244Z,27.83
2018-12-26T16:20:26.940Z,29.97
2018-12-26T16:22:28.954Z,27.50
2018-12-26T16:24:30.653Z,26.70
2018-12-26T16:26:34.667Z,27.07
2018-12-26T16:28:36.499Z,30.17
2018-12-26T16:30:45.987Z,25.80
2018-12-26T16:32:41.857Z,27.47
2018-12-26T16:34:43.821Z,30.27
2018-12-26T16:36:45.526Z,27.83
2018-12-26T16:38:47.258Z,29.03
2018-12-26T16:40:48.988Z,28.17
2018-12-26T16:42:50.699Z,26.37
2018-12-26T16:44:52.606Z,28.03
2018-12-26T16:46:54.441Z,28.80
2018-12-26T16:48:56.167Z,27.83
2018-12-26T16:50:57.864Z,29.70
2018-12-26T16:53:00.540Z,29.77
2018-12-26T16:55:02.533Z,33.30
2018-12-26T16:57:04.362Z,31.23
2018-12-26T16:59:06.195Z,30.67
2018-12-26T17:01:08.006Z,36.10
2018-12-26T17:03:09.730Z,29.83
2018-12-26T17:05:11.716Z,31.77
2018-12-26T17:07:13.419Z,28.57
2018-12-26T17:09:15.121Z,29.30
2018-12-26T17:11:16.889Z,28.07
2018-12-26T17:13:18.754Z,30.97
2018-12-26T17:15:20.689Z,30.10
2018-12-26T17:17:22.565Z,31.20
2018-12-26T17:19:24.337Z,32.90
2018-12-26T17:21:26.043Z,31.13
2018-12-26T17:23:27.768Z,33.37
2018-12-26T17:25:29.803Z,30.37
2018-12-26T17:27:31.749Z,30.00
2018-12-26T17:32:20.721Z,30.10
2018-12-26T17:34:42.087Z,29.77
2018-12-26T17:37:03.583Z,24.33
2018-12-26T17:39:24.949Z,25.33
2018-12-26T17:41:46.305Z,28.17
2018-12-26T17:44:07.906Z,26.80
2018-12-26T17:46:29.270Z,25.50
2018-12-26T17:48:50.894Z,21.43
2018-12-26T17:51:13.841Z,23.13
2018-12-26T17:53:49.570Z,24.47
2018-12-26T17:56:12.926Z,23.60
2018-12-26T17:58:25.942Z,21.10
2018-12-26T18:01:12.790Z,24.43
2018-12-26T18:03:30.341Z,20.77
2018-12-26T18:05:51.950Z,23.60
2018-12-26T18:08:13.325Z,21.97
2018-12-26T18:10:34.790Z,20.80
2018-12-26T18:12:56.150Z,18.20
2018-12-26T18:15:17.510Z,19.73
2018-12-26T18:17:38.941Z,16.60
2018-12-26T18:20:00.289Z,17.70
2018-12-26T18:22:21.671Z,18.83
2018-12-26T18:27:10.455Z,20.07
2018-12-26T18:29:31.922Z,16.60
2018-12-26T18:31:53.305Z,14.27
2018-12-26T18:34:14.825Z,14.13
2018-12-26T18:36:37.579Z,10.27
2018-12-26T18:38:59.655Z,8.73
2018-12-26T18:41:21.111Z,8.87
2018-12-26T18:43:42.477Z,9.63
2018-12-26T18:46:10.654Z,8.60
2018-12-26T18:48:32.127Z,9.53
2018-12-26T18:50:53.499Z,10.93
2018-12-26T18:53:14.901Z,10.10
2018-12-26T18:55:36.269Z,11.20
2018-12-26T18:57:50.520Z,10.57
2018-12-26T19:00:03.621Z,11.40
2018-12-26T19:02:24.983Z,12.53
2018-12-26T19:04:46.342Z,12.37
2018-12-26T19:07:07.825Z,12.43
2018-12-26T19:09:29.190Z,12.90
2018-12-26T19:11:50.559Z,14.30
2018-12-26T19:14:12.138Z,15.20
2018-12-26T19:16:33.494Z,14.47
2018-12-26T19:18:54.855Z,16.93
2018-12-26T19:23:43.971Z,16.80
2018-12-26T19:26:05.337Z,16.17
2018-12-26T19:28:26.730Z,15.63
2018-12-26T19:30:48.117Z,16.80
2018-12-26T19:33:09.579Z,16.53
2018-12-26T19:41:58.511Z,16.40
2018-12-26T19:50:40.958Z,17.37
2018-12-26T19:56:22.810Z,17.60
2018-12-26T19:58:44.322Z,15.30
2018-12-26T21:33:23.081Z,21.20
2018-12-26T21:35:44.475Z,20.45
2018-12-26T21:38:05.832Z,23.07
2018-12-26T21:42:54.814Z,22.20
2018-12-26T21:45:16.326Z,21.15
2018-12-26T21:50:05.666Z,20.40
2018-12-26T21:52:47.153Z,22.87
2018-12-26T21:55:08.653Z,22.48
2018-12-26T21:57:30.154Z,21.48
2018-12-26T21:59:42.512Z,20.80
2018-12-26T22:02:04.013Z,22.22
2018-12-26T22:04:25.514Z,21.85
2018-12-26T22:06:47.037Z,20.12
2018-12-26T22:09:08.583Z,20.70
2018-12-26T22:11:30.101Z,21.48
2018-12-26T22:13:51.618Z,20.10
2018-12-26T22:21:10.921Z,17.15
2018-12-26T22:23:32.290Z,20.32
2018-12-26T22:25:53.658Z,20.25
2018-12-26T22:28:15.049Z,19.50
2018-12-26T22:30:36.409Z,18.52
2018-12-26T22:32:57.785Z,21.02
2018-12-26T22:35:19.182Z,20.62
2018-12-26T22:37:40.557Z,22.80
2018-12-26T22:40:01.929Z,25.20
2018-12-26T22:42:23.306Z,27.98
2018-12-26T22:44:44.762Z,23.25
2018-12-26T22:47:06.253Z,22.50
2018-12-26T22:49:27.621Z,22.82
2018-12-26T22:51:48.974Z,21.47
2018-12-26T22:53:50.716Z,21.77
2018-12-26T22:55:52.527Z,20.88
2018-12-26T22:57:54.336Z,21.48
2018-12-26T23:00:08.973Z,21.10
2018-12-26T23:02:21.391Z,21.50
2018-12-26T23:04:42.774Z,22.10
2018-12-26T23:07:04.166Z,22.50
2018-12-26T23:09:25.697Z,23.18
2018-12-26T23:11:47.134Z,20.70
2018-12-26T23:14:08.535Z,22.85
2018-12-26T23:16:29.897Z,22.98
2018-12-26T23:18:51.266Z,23.47
2018-12-26T23:21:12.653Z,24.52
2018-12-26T23:23:34.089Z,20.45
2018-12-26T23:25:55.465Z,23.57
2018-12-26T23:28:16.834Z,25.02
2018-12-26T23:30:38.315Z,22.60
2018-12-26T23:32:46.718Z,27.77
2018-12-26T23:34:43.854Z,26.07
2018-12-26T23:36:45.569Z,23.20
2018-12-26T23:38:47.281Z,23.15
2018-12-26T23:40:49.029Z,25.90
2018-12-26T23:42:50.740Z,24.37
2018-12-26T23:44:53.162Z,24.10
2018-12-26T23:46:54.924Z,23.75
2018-12-26T23:48:56.621Z,25.32
2018-12-26T23:50:58.441Z,24.77
2018-12-26T23:53:00.263Z,24.00
2018-12-26T23:55:02.109Z,26.48
2018-12-26T23:57:03.854Z,26.00
2018-12-26T23:59:05.570Z,27.07
